createdAt,value
2022-09-27T00:01:47.262Z,6.03
2022-09-27T00:04:14.400Z,2.00
2022-09-27T00:06:41.434Z,1.70
2022-09-27T00:09:08.813Z,1.97
2022-09-27T00:11:37.090Z,2.10
2022-09-27T00:14:04.687Z,4.47
2022-09-27T00:16:32.765Z,2.03
2022-09-27T00:19:04.985Z,1.40
2022-09-27T00:21:32.191Z,4.87
2022-09-27T00:23:59.690Z,2.37
2022-09-27T00:26:27.379Z,2.27
2022-09-27T00:28:54.536Z,2.53
2022-09-27T00:31:26.392Z,2.37
2022-09-27T00:33:54.988Z,5.13
2022-09-27T00:36:22.750Z,3.10
2022-09-27T00:38:49.945Z,2.00
2022-09-27T00:41:18.474Z,2.13
2022-09-27T00:43:49.213Z,1.40
2022-09-27T00:46:19.877Z,1.97
2022-09-27T00:48:47.961Z,2.60
2022-09-27T00:51:15.399Z,2.63
2022-09-27T00:53:46.469Z,1.33
2022-09-27T00:56:16.717Z,1.57
2022-09-27T00:58:47.008Z,2.27
2022-09-27T01:01:14.207Z,2.10
2022-09-27T01:03:45.122Z,2.67
2022-09-27T01:06:12.560Z,2.67
2022-09-27T01:08:39.604Z,2.57
2022-09-27T01:11:18.765Z,1.50
2022-09-27T01:13:53.603Z,2.00
2022-09-27T01:16:46.782Z,2.47
2022-09-27T01:19:41.064Z,2.27
2022-09-27T01:22:13.293Z,3.37
2022-09-27T01:25:01.281Z,2.33
2022-09-27T01:27:28.308Z,2.73
2022-09-27T01:29:55.327Z,2.00
2022-09-27T01:32:34.832Z,1.37
2022-09-27T01:35:12.490Z,2.50
2022-09-27T01:37:58.215Z,2.00
2022-09-27T01:40:37.390Z,1.50
2022-09-27T01:43:11.708Z,2.10
2022-09-27T01:45:41.238Z,3.73
2022-09-27T01:48:14.443Z,1.83
2022-09-27T01:50:43.955Z,1.47
2022-09-27T01:53:17.723Z,1.83
2022-09-27T01:55:45.922Z,1.33
2022-09-27T01:58:29.657Z,1.60
2022-09-27T02:00:57.335Z,1.40
2022-09-27T02:03:36.197Z,1.77
2022-09-27T02:06:05.005Z,3.10
2022-09-27T02:08:35.216Z,1.40
2022-09-27T02:11:04.151Z,1.60
2022-09-27T02:13:40.375Z,2.17
2022-09-27T02:16:07.725Z,1.93
2022-09-27T02:18:50.113Z,1.43
2022-09-27T02:21:18.072Z,2.23
2022-09-27T02:23:48.240Z,1.73
2022-09-27T02:26:23.487Z,2.30
2022-09-27T02:28:56.568Z,1.53
2022-09-27T02:31:23.736Z,2.47
2022-09-27T02:33:54.010Z,1.87
2022-09-27T02:36:21.511Z,2.30
2022-09-27T02:38:48.651Z,2.63
2022-09-27T02:41:16.604Z,2.37
2022-09-27T02:43:44.920Z,1.93
2022-09-27T02:46:31.614Z,2.80
2022-09-27T02:48:58.649Z,2.37
2022-09-27T02:51:38.673Z,1.60
2022-09-27T02:54:26.805Z,2.07
2022-09-27T02:56:57.211Z,3.13
2022-09-27T02:59:30.247Z,2.20
2022-09-27T03:02:09.816Z,3.03
2022-09-27T03:04:58.292Z,2.90
2022-09-27T03:07:25.586Z,3.63
2022-09-27T03:09:53.342Z,2.53
2022-09-27T03:12:25.917Z,3.97
2022-09-27T03:14:54.851Z,5.63
2022-09-27T03:17:22.633Z,2.33
2022-09-27T03:19:49.880Z,2.43
2022-09-27T03:22:17.159Z,2.70
2022-09-27T03:24:44.210Z,2.70
2022-09-27T03:27:11.319Z,3.27
2022-09-27T03:29:38.348Z,3.03
2022-09-27T03:32:05.400Z,2.47
2022-09-27T03:34:32.419Z,4.17
2022-09-27T03:36:59.467Z,2.53
2022-09-27T03:39:26.641Z,2.77
2022-09-27T03:41:53.696Z,2.97
2022-09-27T03:44:20.745Z,4.13
2022-09-27T03:46:47.793Z,3.20
2022-09-27T03:49:15.174Z,3.90
2022-09-27T03:51:42.570Z,3.67
2022-09-27T03:54:09.881Z,3.43
2022-09-27T03:56:36.922Z,4.77
2022-09-27T03:59:04.242Z,3.37
2022-09-27T04:01:31.453Z,4.20
2022-09-27T04:03:58.549Z,4.43
2022-09-27T04:06:27.039Z,4.90
2022-09-27T04:08:54.448Z,4.90
2022-09-27T04:11:23.764Z,4.20
2022-09-27T04:13:50.848Z,4.00
2022-09-27T04:16:18.029Z,2.83
2022-09-27T04:18:45.154Z,8.40
2022-09-27T04:21:12.343Z,3.50
2022-09-27T04:23:39.396Z,3.57
2022-09-27T04:26:06.598Z,4.80
2022-09-27T04:28:33.710Z,3.47
2022-09-27T04:31:00.825Z,4.03
2022-09-27T04:33:27.924Z,4.93
2022-09-27T04:36:13.554Z,5.67
2022-09-27T04:38:40.643Z,4.43
2022-09-27T04:41:07.746Z,3.60
2022-09-27T04:43:35.878Z,3.80
2022-09-27T04:46:02.998Z,4.20
2022-09-27T04:48:30.120Z,5.07
2022-09-27T04:51:02.280Z,4.20
2022-09-27T04:53:29.763Z,4.17
2022-09-27T04:55:56.893Z,4.00
2022-09-27T04:58:24.437Z,4.97
2022-09-27T05:00:55.785Z,5.53
2022-09-27T05:03:23.316Z,4.70
2022-09-27T05:05:50.376Z,4.10
2022-09-27T05:08:17.649Z,3.83
2022-09-27T05:10:44.713Z,3.47
2022-09-27T05:13:11.989Z,3.83
2022-09-27T05:15:39.552Z,3.83
2022-09-27T05:18:08.114Z,4.93
2022-09-27T05:20:35.579Z,3.90
2022-09-27T05:23:04.421Z,3.83
2022-09-27T05:25:32.462Z,4.87
2022-09-27T05:27:59.660Z,4.43
2022-09-27T05:30:27.727Z,21.60
2022-09-27T05:32:55.294Z,4.87
2022-09-27T05:35:22.628Z,3.63
2022-09-27T05:37:53.808Z,5.40
2022-09-27T05:40:40.127Z,5.07
2022-09-27T05:43:07.694Z,4.50
2022-09-27T05:45:34.767Z,4.80
2022-09-27T05:48:01.977Z,4.73
2022-09-27T05:50:29.060Z,6.57
2022-09-27T05:52:56.161Z,4.47
2022-09-27T05:55:23.453Z,3.40
2022-09-27T05:57:57.350Z,4.17
2022-09-27T06:00:25.777Z,4.70
2022-09-27T06:02:56.915Z,4.07
2022-09-27T06:05:24.456Z,6.93
2022-09-27T06:07:51.709Z,6.90
2022-09-27T06:10:19.752Z,7.40
2022-09-27T06:12:46.937Z,6.07
2022-09-27T06:15:14.576Z,5.80
2022-09-27T06:17:41.710Z,5.00
2022-09-27T06:20:09.664Z,4.67
2022-09-27T06:22:37.000Z,7.90
2022-09-27T06:25:04.707Z,5.00
2022-09-27T06:27:32.342Z,5.27
2022-09-27T06:29:59.432Z,7.03
2022-09-27T06:32:26.560Z,7.47
2022-09-27T06:34:53.695Z,4.70
2022-09-27T06:37:20.744Z,5.43
2022-09-27T06:39:49.094Z,4.63
2022-09-27T06:42:18.618Z,5.37
2022-09-27T06:44:50.398Z,5.40
2022-09-27T06:47:18.074Z,6.10
2022-09-27T06:49:45.108Z,6.43
2022-09-27T06:52:12.223Z,4.83
2022-09-27T06:54:39.265Z,5.40
2022-09-27T06:57:06.326Z,5.30
2022-09-27T06:59:52.050Z,6.33
2022-09-27T07:02:19.134Z,5.17
2022-09-27T07:04:46.250Z,5.83
2022-09-27T07:07:13.789Z,5.63
2022-09-27T07:09:40.916Z,6.20
2022-09-27T07:12:07.986Z,5.50
2022-09-27T07:14:35.188Z,5.60
2022-09-27T07:17:02.328Z,5.07
2022-09-27T07:19:29.398Z,5.20
2022-09-27T07:21:56.451Z,6.27
2022-09-27T07:24:23.517Z,6.47
2022-09-27T07:26:50.559Z,6.00
2022-09-27T07:29:17.626Z,6.90
2022-09-27T07:31:44.769Z,7.13
2022-09-27T07:34:12.307Z,5.27
2022-09-27T07:36:39.406Z,6.20
2022-09-27T07:39:06.657Z,5.83
2022-09-27T07:41:33.752Z,5.60
2022-09-27T07:44:00.978Z,6.50
2022-09-27T07:46:28.090Z,5.70
2022-09-27T07:48:55.131Z,6.13
2022-09-27T07:51:22.785Z,6.47
2022-09-27T07:53:50.111Z,10.00
2022-09-27T07:56:17.196Z,5.27
2022-09-27T07:58:44.266Z,6.40
2022-09-27T08:01:11.968Z,5.10
2022-09-27T08:03:40.341Z,5.07
2022-09-27T08:06:07.562Z,5.03
2022-09-27T08:08:34.689Z,5.07
2022-09-27T08:11:01.864Z,5.07
2022-09-27T08:13:29.534Z,4.90
2022-09-27T08:16:01.758Z,7.70
2022-09-27T08:18:28.803Z,5.50
2022-09-27T08:20:59.573Z,4.50
2022-09-27T08:23:27.002Z,5.20
2022-09-27T08:25:54.445Z,4.93
2022-09-27T08:28:22.693Z,4.70
2022-09-27T08:30:51.454Z,6.03
2022-09-27T08:33:18.529Z,3.40
2022-09-27T08:35:45.661Z,1.90
2022-09-27T08:38:12.810Z,2.03
2022-09-27T08:40:57.020Z,0.63
2022-09-27T08:43:30.383Z,1.07
2022-09-27T08:46:15.850Z,0.40
2022-09-27T08:48:44.861Z,0.50
2022-09-27T08:51:14.422Z,0.50
2022-09-27T08:53:49.252Z,1.80
2022-09-27T08:56:21.061Z,0.53
2022-09-27T08:58:48.379Z,0.50
2022-09-27T09:01:16.547Z,0.87
2022-09-27T09:03:48.956Z,0.90
2022-09-27T09:06:22.045Z,0.60
2022-09-27T09:09:09.461Z,0.80
2022-09-27T09:12:14.005Z,0.50
2022-09-27T09:14:56.206Z,0.43
2022-09-27T09:17:26.015Z,0.50
2022-09-27T09:20:01.102Z,0.30
2022-09-27T09:22:31.037Z,0.30
2022-09-27T09:25:05.449Z,0.63
2022-09-27T09:27:32.487Z,0.47
2022-09-27T09:29:59.494Z,0.30
2022-09-27T09:32:29.383Z,1.13
2022-09-27T09:35:01.240Z,1.60
2022-09-27T09:37:39.762Z,0.20
2022-09-27T09:40:17.886Z,1.17
2022-09-27T09:43:08.223Z,1.13
2022-09-27T09:45:37.367Z,0.53
2022-09-27T09:48:07.067Z,2.57
2022-09-27T09:50:42.305Z,0.97
2022-09-27T09:53:12.907Z,0.50
2022-09-27T09:55:42.355Z,0.10
2022-09-27T09:58:15.443Z,0.90
2022-09-27T10:00:46.171Z,0.50
2022-09-27T10:03:13.237Z,0.97
2022-09-27T10:05:43.208Z,1.00
2022-09-27T10:08:16.229Z,0.63
2022-09-27T10:10:43.263Z,0.20
2022-09-27T10:13:16.071Z,0.40
2022-09-27T10:15:43.604Z,0.70
2022-09-27T10:18:14.790Z,1.10
2022-09-27T10:20:52.759Z,0.77
2022-09-27T10:23:21.236Z,0.30
2022-09-27T10:26:01.772Z,0.27
2022-09-27T10:28:31.401Z,0.70
2022-09-27T10:30:59.249Z,0.77
2022-09-27T10:33:26.333Z,3.10
2022-09-27T10:35:53.439Z,2.13
2022-09-27T10:38:22.322Z,0.20
2022-09-27T10:40:50.246Z,0.20
2022-09-27T10:43:26.313Z,0.60
2022-09-27T10:46:15.219Z,0.37
2022-09-27T10:48:42.934Z,0.40
2022-09-27T10:51:29.193Z,0.00
2022-09-27T10:54:00.253Z,0.83
2022-09-27T10:56:29.413Z,0.10
2022-09-27T10:58:58.055Z,0.30
2022-09-27T11:01:25.722Z,0.83
2022-09-27T11:03:55.574Z,0.67
2022-09-27T11:06:25.381Z,0.30
2022-09-27T11:08:53.161Z,0.20
2022-09-27T11:11:26.985Z,0.20
2022-09-27T11:14:05.286Z,0.53
2022-09-27T11:16:38.415Z,0.20
2022-09-27T11:19:20.639Z,0.10
2022-09-27T11:22:08.510Z,0.20
2022-09-27T11:24:47.590Z,0.20
2022-09-27T11:27:24.229Z,0.10
2022-09-27T11:30:06.790Z,0.23
2022-09-27T11:32:33.810Z,0.10
2022-09-27T11:35:24.210Z,0.30
2022-09-27T11:38:00.292Z,0.20
2022-09-27T11:40:27.349Z,0.20
2022-09-27T11:43:13.222Z,0.33
2022-09-27T11:46:19.296Z,2.10
2022-09-27T11:48:46.051Z,0.40
2022-09-27T11:51:23.959Z,1.00
2022-09-27T11:53:54.060Z,0.10
2022-09-27T11:56:21.095Z,0.23
2022-09-27T11:59:04.604Z,0.30
2022-09-27T12:01:50.990Z,0.50
2022-09-27T12:04:18.030Z,0.20
2022-09-27T12:07:00.441Z,0.30
2022-09-27T12:09:32.554Z,0.20
2022-09-27T12:12:03.570Z,0.70
2022-09-27T12:14:33.581Z,1.33
2022-09-27T12:17:03.069Z,0.60
2022-09-27T12:19:33.354Z,0.10
2022-09-27T12:22:02.525Z,0.33
2022-09-27T12:24:30.814Z,0.33
2022-09-27T12:27:09.779Z,1.17
2022-09-27T12:29:39.537Z,0.37
2022-09-27T12:32:14.213Z,0.20
2022-09-27T12:34:57.009Z,0.10
2022-09-27T12:37:29.541Z,0.23
2022-09-27T12:40:02.510Z,0.10
2022-09-27T12:42:32.348Z,0.20
2022-09-27T12:44:59.620Z,1.10
2022-09-27T12:47:26.816Z,0.33
2022-09-27T12:50:09.755Z,0.20
2022-09-27T12:52:39.242Z,0.10
2022-09-27T12:55:15.441Z,0.10
2022-09-27T12:57:42.483Z,0.10
2022-09-27T13:00:12.633Z,0.10
2022-09-27T13:02:57.460Z,0.40
2022-09-27T13:05:53.200Z,0.40
2022-09-27T13:08:26.083Z,0.20
2022-09-27T13:11:13.617Z,0.20
2022-09-27T13:13:40.751Z,0.77
2022-09-27T13:16:08.383Z,1.57
2022-09-27T13:18:35.523Z,0.20
2022-09-27T13:21:07.127Z,0.10
2022-09-27T13:23:40.230Z,1.97
2022-09-27T13:26:25.900Z,0.37
2022-09-27T13:28:58.045Z,0.20
2022-09-27T13:31:43.699Z,1.83
2022-09-27T13:34:30.713Z,0.20
2022-09-27T13:36:57.764Z,0.57
2022-09-27T13:39:24.823Z,2.10
2022-09-27T13:41:53.438Z,0.60
2022-09-27T13:44:22.796Z,3.33
2022-09-27T13:46:53.337Z,0.13
2022-09-27T13:49:24.826Z,0.97
2022-09-27T13:52:03.013Z,0.63
2022-09-27T13:54:41.819Z,0.40
2022-09-27T13:57:27.594Z,2.53
2022-09-27T13:59:56.790Z,1.30
2022-09-27T14:02:29.377Z,3.97
2022-09-27T14:04:57.408Z,1.30
2022-09-27T14:07:29.364Z,0.87
2022-09-27T14:10:01.368Z,0.50
2022-09-27T14:12:31.837Z,1.17
2022-09-27T14:14:59.443Z,1.53
2022-09-27T14:17:26.693Z,0.30
2022-09-27T14:19:54.302Z,0.77
2022-09-27T14:22:22.682Z,0.97
2022-09-27T14:24:54.207Z,1.67
2022-09-27T14:27:25.387Z,0.33
2022-09-27T14:30:02.592Z,0.30
2022-09-27T14:32:34.104Z,0.37
2022-09-27T14:35:36.644Z,0.50
2022-09-27T14:38:26.310Z,1.80
2022-09-27T14:41:03.558Z,0.70
2022-09-27T14:43:33.044Z,0.40
2022-09-27T14:46:01.290Z,0.73
2022-09-27T14:48:29.485Z,0.30
2022-09-27T14:51:05.088Z,1.63
2022-09-27T14:53:35.091Z,0.33
2022-09-27T14:56:02.917Z,1.23
2022-09-27T14:58:46.439Z,0.40
2022-09-27T15:01:20.068Z,0.40
2022-09-27T15:03:49.122Z,0.20
2022-09-27T15:06:20.211Z,1.33
2022-09-27T15:08:49.486Z,1.87
2022-09-27T15:11:17.932Z,0.30
2022-09-27T15:13:45.982Z,0.17
2022-09-27T15:16:17.314Z,0.30
2022-09-27T15:18:46.647Z,0.90
2022-09-27T15:21:15.148Z,0.87
2022-09-27T15:23:46.026Z,0.50
2022-09-27T15:26:15.801Z,0.33
2022-09-27T15:28:44.032Z,0.37
2022-09-27T15:31:11.196Z,2.13
2022-09-27T15:33:38.415Z,1.30
2022-09-27T15:36:07.083Z,0.70
2022-09-27T15:38:35.600Z,1.27
2022-09-27T15:41:02.729Z,1.10
2022-09-27T15:43:30.242Z,0.63
2022-09-27T15:46:00.820Z,1.63
2022-09-27T15:48:28.177Z,2.50
2022-09-27T15:50:55.235Z,5.63
2022-09-27T15:53:37.583Z,2.17
2022-09-27T15:56:06.474Z,3.13
2022-09-27T15:58:34.506Z,3.10
2022-09-27T16:01:03.376Z,2.53
2022-09-27T16:03:30.603Z,2.43
2022-09-27T16:05:58.373Z,2.67
2022-09-27T16:08:26.005Z,1.10
2022-09-27T16:10:55.071Z,0.63
2022-09-27T16:13:22.596Z,0.50
2022-09-27T16:15:50.069Z,1.00
2022-09-27T16:18:17.263Z,1.43
2022-09-27T16:20:44.349Z,1.17
2022-09-27T16:23:11.501Z,0.60
2022-09-27T16:25:38.515Z,1.67
2022-09-27T16:28:05.974Z,1.70
2022-09-27T16:30:33.243Z,3.10
2022-09-27T16:33:00.348Z,0.80
2022-09-27T16:35:28.321Z,0.60
2022-09-27T16:37:55.369Z,0.70
2022-09-27T16:40:22.509Z,1.57
2022-09-27T16:42:50.077Z,0.80
2022-09-27T16:45:19.415Z,1.07
2022-09-27T16:47:47.144Z,0.60
2022-09-27T16:50:33.381Z,0.97
2022-09-27T16:53:00.528Z,1.17
2022-09-27T16:55:28.613Z,2.17
2022-09-27T16:57:58.058Z,1.13
2022-09-27T17:00:25.259Z,0.83
2022-09-27T17:02:53.141Z,0.87
2022-09-27T17:05:20.814Z,0.90
2022-09-27T17:07:50.862Z,1.03
2022-09-27T17:10:18.331Z,1.07
2022-09-27T17:12:46.434Z,0.70
2022-09-27T17:15:13.727Z,0.80
2022-09-27T17:17:40.860Z,2.23
2022-09-27T17:20:08.041Z,1.20
2022-09-27T17:22:35.112Z,1.13
2022-09-27T17:25:02.151Z,1.13
2022-09-27T17:27:29.360Z,1.10
2022-09-27T17:29:56.460Z,1.30
2022-09-27T17:32:24.487Z,0.83
2022-09-27T17:34:52.228Z,1.10
2022-09-27T17:37:19.450Z,0.97
2022-09-27T17:39:46.502Z,1.60
2022-09-27T17:42:13.515Z,1.20
2022-09-27T17:44:40.583Z,1.23
2022-09-27T17:47:26.206Z,0.70
2022-09-27T17:50:12.064Z,1.90
2022-09-27T17:52:39.401Z,1.93
2022-09-27T17:55:06.560Z,1.10
2022-09-27T17:57:33.584Z,1.63
2022-09-27T18:00:00.817Z,1.60
2022-09-27T18:02:28.273Z,2.33
2022-09-27T18:04:55.423Z,1.30
2022-09-27T18:07:22.438Z,1.83
2022-09-27T18:09:51.033Z,1.80
2022-09-27T18:12:18.300Z,3.67
2022-09-27T18:14:45.795Z,2.07
2022-09-27T18:17:13.289Z,1.50
2022-09-27T18:19:40.677Z,0.97
2022-09-27T18:22:07.722Z,2.00
2022-09-27T18:24:34.806Z,2.20
2022-09-27T18:27:03.327Z,2.43
2022-09-27T18:29:30.362Z,1.63
2022-09-27T18:31:57.463Z,1.37
2022-09-27T18:34:27.595Z,1.50
2022-09-27T18:36:54.628Z,1.13
2022-09-27T18:39:21.938Z,2.47
2022-09-27T18:41:49.215Z,1.67
2022-09-27T18:44:17.084Z,1.63
2022-09-27T18:46:44.353Z,1.43
2022-09-27T18:49:12.655Z,1.83
2022-09-27T18:51:43.603Z,1.97
2022-09-27T18:54:23.317Z,2.30
2022-09-27T18:56:52.096Z,1.20
2022-09-27T18:59:20.788Z,2.57
2022-09-27T19:01:47.985Z,0.83
2022-09-27T19:04:20.370Z,1.90
2022-09-27T19:06:50.358Z,1.00
2022-09-27T19:09:17.456Z,1.33
2022-09-27T19:11:44.792Z,1.33
2022-09-27T19:14:15.588Z,1.37
2022-09-27T19:16:43.135Z,3.03
2022-09-27T19:19:10.280Z,1.63
2022-09-27T19:21:37.366Z,14.60
2022-09-27T19:24:04.419Z,19.30
2022-09-27T19:26:31.534Z,10.07
2022-09-27T19:28:58.876Z,11.00
2022-09-27T19:31:26.684Z,2.73
2022-09-27T19:33:59.654Z,2.70
2022-09-27T19:36:26.977Z,1.20
2022-09-27T19:38:56.239Z,1.00
2022-09-27T19:41:23.312Z,1.30
2022-09-27T19:43:54.178Z,3.07
2022-09-27T19:46:21.979Z,1.10
2022-09-27T19:48:49.530Z,1.23
2022-09-27T19:51:20.694Z,1.23
2022-09-27T19:53:47.980Z,0.97
2022-09-27T19:56:15.443Z,1.10
2022-09-27T19:58:42.889Z,1.00
2022-09-27T20:01:20.509Z,1.80
2022-09-27T20:03:48.351Z,0.90
2022-09-27T20:06:16.753Z,1.07
2022-09-27T20:08:44.308Z,0.63
2022-09-27T20:11:12.833Z,1.37
2022-09-27T20:13:40.257Z,0.70
2022-09-27T20:16:08.752Z,3.33
2022-09-27T20:18:39.157Z,2.53
2022-09-27T20:21:06.370Z,0.80
2022-09-27T20:23:34.434Z,0.63
2022-09-27T20:26:05.915Z,0.83
2022-09-27T20:28:33.038Z,0.83
2022-09-27T20:31:03.673Z,1.63
2022-09-27T20:33:50.799Z,0.60
2022-09-27T20:36:19.175Z,1.23
2022-09-27T20:38:47.237Z,1.43
2022-09-27T20:41:18.159Z,1.03
2022-09-27T20:43:45.630Z,2.37
2022-09-27T20:46:13.895Z,0.63
2022-09-27T20:48:41.315Z,0.63
2022-09-27T20:51:08.369Z,0.53
2022-09-27T20:53:35.740Z,1.60
2022-09-27T20:56:02.885Z,1.50
2022-09-27T20:58:30.791Z,1.77
2022-09-27T21:00:58.555Z,1.20
2022-09-27T21:03:25.664Z,0.90
2022-09-27T21:05:56.495Z,1.53
2022-09-27T21:08:23.912Z,1.10
2022-09-27T21:10:52.947Z,1.27
2022-09-27T21:13:20.367Z,1.00
2022-09-27T21:15:47.646Z,1.97
2022-09-27T21:18:14.780Z,1.23
2022-09-27T21:20:41.816Z,0.73
2022-09-27T21:23:08.865Z,1.10
2022-09-27T21:25:35.879Z,0.70
2022-09-27T21:28:04.256Z,1.40
2022-09-27T21:30:31.500Z,0.80
2022-09-27T21:32:58.630Z,1.50
2022-09-27T21:35:25.675Z,0.60
2022-09-27T21:37:56.186Z,0.60
2022-09-27T21:40:23.295Z,1.03
2022-09-27T21:42:55.621Z,1.37
2022-09-27T21:45:24.622Z,0.43
2022-09-27T21:47:51.636Z,0.83
2022-09-27T21:50:18.687Z,0.70
2022-09-27T21:52:45.709Z,0.50
2022-09-27T21:55:12.736Z,0.60
2022-09-27T21:57:39.765Z,0.70
2022-09-27T22:00:07.584Z,0.87
2022-09-27T22:02:35.643Z,0.60
2022-09-27T22:05:02.725Z,0.60
2022-09-27T22:07:29.748Z,1.30
2022-09-27T22:09:56.803Z,0.87
2022-09-27T22:12:23.807Z,0.40
2022-09-27T22:14:50.832Z,0.73
2022-09-27T22:17:17.899Z,0.70
2022-09-27T22:19:44.959Z,1.10
2022-09-27T22:22:11.962Z,0.67
2022-09-27T22:24:38.992Z,1.20
2022-09-27T22:27:06.014Z,1.10
2022-09-27T22:29:33.087Z,0.50
2022-09-27T22:32:00.131Z,1.60
2022-09-27T22:34:31.454Z,0.73
2022-09-27T22:37:00.205Z,1.37
2022-09-27T22:39:27.520Z,0.97
2022-09-27T22:41:54.631Z,0.97
2022-09-27T22:44:23.443Z,0.60
2022-09-27T22:46:50.556Z,0.80
2022-09-27T22:49:17.797Z,0.80
2022-09-27T22:51:44.943Z,0.80
2022-09-27T22:54:11.950Z,0.53
2022-09-27T22:56:39.188Z,2.50
2022-09-27T22:59:06.273Z,0.53
2022-09-27T23:01:33.427Z,2.73
2022-09-27T23:04:00.531Z,0.63
2022-09-27T23:06:27.646Z,0.80
2022-09-27T23:08:54.893Z,0.77
2022-09-27T23:11:22.865Z,0.90
2022-09-27T23:13:50.608Z,0.60
2022-09-27T23:16:20.220Z,0.40
2022-09-27T23:18:50.576Z,1.07
2022-09-27T23:21:17.857Z,0.90
2022-09-27T23:23:46.410Z,1.27
2022-09-27T23:26:14.557Z,1.50
2022-09-27T23:28:41.933Z,0.60
2022-09-27T23:31:09.011Z,0.63
2022-09-27T23:33:36.904Z,0.50
2022-09-27T23:36:04.300Z,0.90
2022-09-27T23:38:32.150Z,0.40
2022-09-27T23:41:00.013Z,0.60
2022-09-27T23:43:27.140Z,1.10
2022-09-27T23:45:55.984Z,1.20
2022-09-27T23:48:23.111Z,1.00
2022-09-27T23:50:50.192Z,0.50
2022-09-27T23:53:17.196Z,0.40
2022-09-27T23:55:44.299Z,0.60
2022-09-27T23:58:11.320Z,1.73
